sensor_id;sensor_type;location;lat;lon;timestamp;temperature;humidity
53645;DHT22;39547;45.554;12.068;2023-03-04T00:05:21;7.70;78.10
53645;DHT22;39547;45.554;12.068;2023-03-04T00:11:23;7.70;78.20
53645;DHT22;39547;45.554;12.068;2023-03-04T00:17:24;7.60;78.30
53645;DHT22;39547;45.554;12.068;2023-03-04T00:23:26;7.60;78.50
53645;DHT22;39547;45.554;12.068;2023-03-04T00:29:27;7.50;78.20
53645;DHT22;39547;45.554;12.068;2023-03-04T00:35:29;7.50;78.50
53645;DHT22;39547;45.554;12.068;2023-03-04T00:41:30;7.40;78.40
53645;DHT22;39547;45.554;12.068;2023-03-04T00:47:32;7.40;78.60
53645;DHT22;39547;45.554;12.068;2023-03-04T00:53:33;7.30;78.10
53645;DHT22;39547;45.554;12.068;2023-03-04T00:59:35;7.20;78.60
53645;DHT22;39547;45.554;12.068;2023-03-04T01:05:36;7.20;78.70
53645;DHT22;39547;45.554;12.068;2023-03-04T01:11:38;7.10;78.50
53645;DHT22;39547;45.554;12.068;2023-03-04T01:17:39;7.10;78.70
53645;DHT22;39547;45.554;12.068;2023-03-04T01:23:41;7.00;78.50
53645;DHT22;39547;45.554;12.068;2023-03-04T01:29:43;6.90;78.70
53645;DHT22;39547;45.554;12.068;2023-03-04T01:35:44;6.80;78.40
53645;DHT22;39547;45.554;12.068;2023-03-04T01:41:46;6.80;78.80
53645;DHT22;39547;45.554;12.068;2023-03-04T01:47:48;6.70;78.90
53645;DHT22;39547;45.554;12.068;2023-03-04T01:53:50;6.70;79.10
53645;DHT22;39547;45.554;12.068;2023-03-04T02:00:26;6.70;79.10
53645;DHT22;39547;45.554;12.068;2023-03-04T02:06:29;6.60;79.10
53645;DHT22;39547;45.554;12.068;2023-03-04T02:12:34;6.50;79.20
53645;DHT22;39547;45.554;12.068;2023-03-04T02:18:35;6.50;79.20
53645;DHT22;39547;45.554;12.068;2023-03-04T02:30:44;6.40;79.20
53645;DHT22;39547;45.554;12.068;2023-03-04T02:36:48;6.30;79.20
53645;DHT22;39547;45.554;12.068;2023-03-04T02:42:50;6.20;79.30
53645;DHT22;39547;45.554;12.068;2023-03-04T02:48:52;6.20;79.40
53645;DHT22;39547;45.554;12.068;2023-03-04T02:54:53;6.20;79.50
53645;DHT22;39547;45.554;12.068;2023-03-04T03:00:55;6.10;79.60
53645;DHT22;39547;45.554;12.068;2023-03-04T03:06:58;6.00;79.40
53645;DHT22;39547;45.554;12.068;2023-03-04T03:13:00;5.90;79.80
53645;DHT22;39547;45.554;12.068;2023-03-04T03:19:02;5.90;79.90
53645;DHT22;39547;45.554;12.068;2023-03-04T03:25:04;5.90;79.70
53645;DHT22;39547;45.554;12.068;2023-03-04T03:31:06;5.90;79.70
53645;DHT22;39547;45.554;12.068;2023-03-04T03:37:08;5.90;79.90
53645;DHT22;39547;45.554;12.068;2023-03-04T03:43:10;5.80;79.70
53645;DHT22;39547;45.554;12.068;2023-03-04T03:49:11;5.70;79.90
53645;DHT22;39547;45.554;12.068;2023-03-04T03:55:12;5.70;80.20
53645;DHT22;39547;45.554;12.068;2023-03-04T04:01:14;5.80;80.00
53645;DHT22;39547;45.554;12.068;2023-03-04T04:07:16;5.80;79.90
53645;DHT22;39547;45.554;12.068;2023-03-04T04:13:17;5.80;80.10
53645;DHT22;39547;45.554;12.068;2023-03-04T04:19:19;5.80;80.20
53645;DHT22;39547;45.554;12.068;2023-03-04T04:25:21;5.80;80.10
53645;DHT22;39547;45.554;12.068;2023-03-04T04:31:22;5.80;80.10
53645;DHT22;39547;45.554;12.068;2023-03-04T04:37:23;5.70;80.20
53645;DHT22;39547;45.554;12.068;2023-03-04T04:43:25;5.70;80.20
53645;DHT22;39547;45.554;12.068;2023-03-04T04:49:26;5.70;80.10
53645;DHT22;39547;45.554;12.068;2023-03-04T04:55:28;5.60;80.20
53645;DHT22;39547;45.554;12.068;2023-03-04T05:01:29;5.50;80.30
53645;DHT22;39547;45.554;12.068;2023-03-04T05:07:32;5.50;80.20
53645;DHT22;39547;45.554;12.068;2023-03-04T05:13:33;5.40;80.10
53645;DHT22;39547;45.554;12.068;2023-03-04T05:19:35;5.30;79.80
53645;DHT22;39547;45.554;12.068;2023-03-04T05:25:36;5.30;80.30
53645;DHT22;39547;45.554;12.068;2023-03-04T05:31:37;5.30;80.40
53645;DHT22;39547;45.554;12.068;2023-03-04T05:37:39;5.20;80.40
53645;DHT22;39547;45.554;12.068;2023-03-04T05:43:40;5.20;80.40
53645;DHT22;39547;45.554;12.068;2023-03-04T05:49:42;5.20;80.60
53645;DHT22;39547;45.554;12.068;2023-03-04T05:55:48;5.20;80.50
53645;DHT22;39547;45.554;12.068;2023-03-04T06:01:49;5.10;80.50
53645;DHT22;39547;45.554;12.068;2023-03-04T06:07:51;5.10;80.40
53645;DHT22;39547;45.554;12.068;2023-03-04T06:13:52;5.10;80.70
53645;DHT22;39547;45.554;12.068;2023-03-04T06:19:54;5.10;80.70
53645;DHT22;39547;45.554;12.068;2023-03-04T06:25:57;5.20;80.60
53645;DHT22;39547;45.554;12.068;2023-03-04T06:31:59;5.20;80.50
53645;DHT22;39547;45.554;12.068;2023-03-04T06:38:00;5.20;80.60
53645;DHT22;39547;45.554;12.068;2023-03-04T06:44:02;5.30;80.60
53645;DHT22;39547;45.554;12.068;2023-03-04T06:50:04;5.50;80.70
53645;DHT22;39547;45.554;12.068;2023-03-04T06:56:07;5.60;80.60
53645;DHT22;39547;45.554;12.068;2023-03-04T07:02:11;5.70;80.60
53645;DHT22;39547;45.554;12.068;2023-03-04T07:08:12;5.90;80.40
53645;DHT22;39547;45.554;12.068;2023-03-04T07:14:14;6.00;80.30
53645;DHT22;39547;45.554;12.068;2023-03-04T07:20:15;6.20;80.20
53645;DHT22;39547;45.554;12.068;2023-03-04T07:26:17;6.50;79.90
53645;DHT22;39547;45.554;12.068;2023-03-04T07:32:18;6.70;79.70
53645;DHT22;39547;45.554;12.068;2023-03-04T07:38:20;6.90;79.60
53645;DHT22;39547;45.554;12.068;2023-03-04T07:44:21;7.10;78.90
53645;DHT22;39547;45.554;12.068;2023-03-04T07:50:23;7.30;78.70
53645;DHT22;39547;45.554;12.068;2023-03-04T07:56:27;7.60;78.50
53645;DHT22;39547;45.554;12.068;2023-03-04T08:02:29;7.70;78.10
53645;DHT22;39547;45.554;12.068;2023-03-04T08:08:31;8.00;78.10
53645;DHT22;39547;45.554;12.068;2023-03-04T08:14:32;8.20;77.70
53645;DHT22;39547;45.554;12.068;2023-03-04T08:20:34;8.50;77.50
53645;DHT22;39547;45.554;12.068;2023-03-04T08:26:39;8.70;77.00
53645;DHT22;39547;45.554;12.068;2023-03-04T08:32:42;8.90;76.90
53645;DHT22;39547;45.554;12.068;2023-03-04T08:38:43;9.20;76.40
53645;DHT22;39547;45.554;12.068;2023-03-04T08:44:45;9.30;73.90
53645;DHT22;39547;45.554;12.068;2023-03-04T08:50:47;9.40;74.00
53645;DHT22;39547;45.554;12.068;2023-03-04T08:56:48;9.60;72.40
53645;DHT22;39547;45.554;12.068;2023-03-04T09:02:50;9.80;72.80
53645;DHT22;39547;45.554;12.068;2023-03-04T09:08:51;9.90;70.70
53645;DHT22;39547;45.554;12.068;2023-03-04T09:14:52;10.10;71.70
53645;DHT22;39547;45.554;12.068;2023-03-04T09:20:54;10.20;70.40
53645;DHT22;39547;45.554;12.068;2023-03-04T09:26:55;10.50;70.00
53645;DHT22;39547;45.554;12.068;2023-03-04T09:32:57;10.70;69.80
53645;DHT22;39547;45.554;12.068;2023-03-04T09:38:59;10.80;67.30
53645;DHT22;39547;45.554;12.068;2023-03-04T09:45:05;11.10;67.70
53645;DHT22;39547;45.554;12.068;2023-03-04T09:51:20;11.20;67.60
53645;DHT22;39547;45.554;12.068;2023-03-04T10:03:52;11.70;67.10
53645;DHT22;39547;45.554;12.068;2023-03-04T10:10:06;11.90;65.90
53645;DHT22;39547;45.554;12.068;2023-03-04T10:16:13;12.10;64.30
53645;DHT22;39547;45.554;12.068;2023-03-04T10:22:25;12.30;65.00
53645;DHT22;39547;45.554;12.068;2023-03-04T10:28:29;12.50;61.60
53645;DHT22;39547;45.554;12.068;2023-03-04T10:34:31;12.70;62.10
53645;DHT22;39547;45.554;12.068;2023-03-04T10:40:38;12.90;62.60
53645;DHT22;39547;45.554;12.068;2023-03-04T10:46:42;13.00;61.60
53645;DHT22;39547;45.554;12.068;2023-03-04T10:52:48;13.20;60.70
53645;DHT22;39547;45.554;12.068;2023-03-04T10:58:52;13.30;57.70
53645;DHT22;39547;45.554;12.068;2023-03-04T11:05:06;13.50;55.90
53645;DHT22;39547;45.554;12.068;2023-03-04T11:11:23;13.70;58.40
53645;DHT22;39547;45.554;12.068;2023-03-04T11:17:43;13.80;57.10
53645;DHT22;39547;45.554;12.068;2023-03-04T11:30:15;13.90;56.80
53645;DHT22;39547;45.554;12.068;2023-03-04T11:43:08;14.20;56.50
53645;DHT22;39547;45.554;12.068;2023-03-04T11:55:24;14.30;54.20
53645;DHT22;39547;45.554;12.068;2023-03-04T12:01:51;14.50;53.60
53645;DHT22;39547;45.554;12.068;2023-03-04T12:14:39;14.70;52.70
53645;DHT22;39547;45.554;12.068;2023-03-04T12:39:40;15.20;51.40
53645;DHT22;39547;45.554;12.068;2023-03-04T12:52:05;15.60;52.00
53645;DHT22;39547;45.554;12.068;2023-03-04T12:58:29;15.70;50.40
53645;DHT22;39547;45.554;12.068;2023-03-04T13:17:36;15.80;49.40
53645;DHT22;39547;45.554;12.068;2023-03-04T13:23:38;15.80;48.20
53645;DHT22;39547;45.554;12.068;2023-03-04T13:29:40;16.00;48.70
53645;DHT22;39547;45.554;12.068;2023-03-04T13:42:38;16.10;47.60
53645;DHT22;39547;45.554;12.068;2023-03-04T13:48:40;16.00;47.30
53645;DHT22;39547;45.554;12.068;2023-03-04T13:54:43;16.00;48.00
53645;DHT22;39547;45.554;12.068;2023-03-04T14:00:49;16.00;46.90
53645;DHT22;39547;45.554;12.068;2023-03-04T14:06:53;16.00;46.70
53645;DHT22;39547;45.554;12.068;2023-03-04T14:12:56;15.90;45.90
53645;DHT22;39547;45.554;12.068;2023-03-04T14:19:03;15.80;45.90
53645;DHT22;39547;45.554;12.068;2023-03-04T14:31:23;15.60;48.00
53645;DHT22;39547;45.554;12.068;2023-03-04T14:38:19;15.50;48.00
53645;DHT22;39547;45.554;12.068;2023-03-04T14:50:16;15.50;49.10
53645;DHT22;39547;45.554;12.068;2023-03-04T14:56:29;15.60;49.10
53645;DHT22;39547;45.554;12.068;2023-03-04T15:02:40;15.90;48.60
53645;DHT22;39547;45.554;12.068;2023-03-04T15:08:42;16.50;48.00
53645;DHT22;39547;45.554;12.068;2023-03-04T15:14:48;17.20;46.00
53645;DHT22;39547;45.554;12.068;2023-03-04T15:20:59;17.50;46.20
53645;DHT22;39547;45.554;12.068;2023-03-04T15:27:00;17.30;46.50
53645;DHT22;39547;45.554;12.068;2023-03-04T15:33:11;17.70;45.70
53645;DHT22;39547;45.554;12.068;2023-03-04T15:39:14;17.00;46.80
53645;DHT22;39547;45.554;12.068;2023-03-04T15:45:26;16.70;48.20
53645;DHT22;39547;45.554;12.068;2023-03-04T15:51:28;16.70;48.80
53645;DHT22;39547;45.554;12.068;2023-03-04T15:57:30;16.40;49.60
53645;DHT22;39547;45.554;12.068;2023-03-04T16:03:31;16.10;50.80
53645;DHT22;39547;45.554;12.068;2023-03-04T16:09:33;15.70;50.50
53645;DHT22;39547;45.554;12.068;2023-03-04T16:15:34;15.40;51.20
53645;DHT22;39547;45.554;12.068;2023-03-04T16:21:36;14.90;52.20
53645;DHT22;39547;45.554;12.068;2023-03-04T16:27:38;14.60;53.50
53645;DHT22;39547;45.554;12.068;2023-03-04T16:33:40;14.40;53.70
53645;DHT22;39547;45.554;12.068;2023-03-04T16:39:42;14.70;53.80
53645;DHT22;39547;45.554;12.068;2023-03-04T16:45:46;14.60;53.60
53645;DHT22;39547;45.554;12.068;2023-03-04T16:51:49;14.10;54.40
53645;DHT22;39547;45.554;12.068;2023-03-04T16:57:52;13.70;55.00
53645;DHT22;39547;45.554;12.068;2023-03-04T17:03:54;13.30;55.80
53645;DHT22;39547;45.554;12.068;2023-03-04T17:09:56;13.00;56.50
53645;DHT22;39547;45.554;12.068;2023-03-04T17:16:01;12.70;57.20
53645;DHT22;39547;45.554;12.068;2023-03-04T17:22:03;12.50;57.60
53645;DHT22;39547;45.554;12.068;2023-03-04T17:28:04;12.20;58.10
53645;DHT22;39547;45.554;12.068;2023-03-04T17:34:06;12.00;58.70
53645;DHT22;39547;45.554;12.068;2023-03-04T17:40:08;11.80;59.20
53645;DHT22;39547;45.554;12.068;2023-03-04T17:46:15;11.60;59.70
53645;DHT22;39547;45.554;12.068;2023-03-04T17:58:47;11.30;60.80
53645;DHT22;39547;45.554;12.068;2023-03-04T18:04:49;11.20;61.40
53645;DHT22;39547;45.554;12.068;2023-03-04T18:10:50;11.00;62.00
53645;DHT22;39547;45.554;12.068;2023-03-04T18:16:52;10.90;62.30
53645;DHT22;39547;45.554;12.068;2023-03-04T18:22:53;10.90;62.80
53645;DHT22;39547;45.554;12.068;2023-03-04T18:28:57;10.80;63.00
53645;DHT22;39547;45.554;12.068;2023-03-04T18:34:59;10.70;63.50
53645;DHT22;39547;45.554;12.068;2023-03-04T18:41:05;10.70;63.80
53645;DHT22;39547;45.554;12.068;2023-03-04T18:47:07;10.60;64.20
53645;DHT22;39547;45.554;12.068;2023-03-04T18:53:11;10.60;64.50
53645;DHT22;39547;45.554;12.068;2023-03-04T18:59:17;10.50;64.90
53645;DHT22;39547;45.554;12.068;2023-03-04T19:05:25;10.40;65.30
53645;DHT22;39547;45.554;12.068;2023-03-04T19:11:27;10.30;65.50
53645;DHT22;39547;45.554;12.068;2023-03-04T19:17:31;10.20;65.80
53645;DHT22;39547;45.554;12.068;2023-03-04T19:23:33;10.10;66.00
53645;DHT22;39547;45.554;12.068;2023-03-04T19:29:35;10.00;66.20
53645;DHT22;39547;45.554;12.068;2023-03-04T19:35:41;9.90;66.50
53645;DHT22;39547;45.554;12.068;2023-03-04T19:41:43;9.90;66.80
53645;DHT22;39547;45.554;12.068;2023-03-04T19:47:44;9.70;66.90
53645;DHT22;39547;45.554;12.068;2023-03-04T19:53:46;9.70;67.20
53645;DHT22;39547;45.554;12.068;2023-03-04T19:59:48;9.60;67.50
53645;DHT22;39547;45.554;12.068;2023-03-04T20:05:49;9.50;67.70
53645;DHT22;39547;45.554;12.068;2023-03-04T20:11:50;9.50;67.90
53645;DHT22;39547;45.554;12.068;2023-03-04T20:17:52;9.40;68.10
53645;DHT22;39547;45.554;12.068;2023-03-04T20:23:54;9.30;68.30
53645;DHT22;39547;45.554;12.068;2023-03-04T20:29:55;9.20;68.60
53645;DHT22;39547;45.554;12.068;2023-03-04T20:35:56;9.20;68.80
53645;DHT22;39547;45.554;12.068;2023-03-04T20:41:58;9.10;69.00
53645;DHT22;39547;45.554;12.068;2023-03-04T20:47:59;9.00;69.20
53645;DHT22;39547;45.554;12.068;2023-03-04T20:54:01;9.00;69.50
53645;DHT22;39547;45.554;12.068;2023-03-04T21:00:04;8.90;69.70
53645;DHT22;39547;45.554;12.068;2023-03-04T21:06:08;8.80;69.90
53645;DHT22;39547;45.554;12.068;2023-03-04T21:12:10;8.80;70.00
53645;DHT22;39547;45.554;12.068;2023-03-04T21:18:11;8.70;70.20
53645;DHT22;39547;45.554;12.068;2023-03-04T21:24:15;8.60;70.50
53645;DHT22;39547;45.554;12.068;2023-03-04T21:30:17;8.60;70.70
53645;DHT22;39547;45.554;12.068;2023-03-04T21:36:18;8.50;70.90
53645;DHT22;39547;45.554;12.068;2023-03-04T21:42:20;8.40;71.20
53645;DHT22;39547;45.554;12.068;2023-03-04T21:48:22;8.30;71.30
53645;DHT22;39547;45.554;12.068;2023-03-04T21:54:24;8.20;71.50
53645;DHT22;39547;45.554;12.068;2023-03-04T22:00:26;8.20;71.70
53645;DHT22;39547;45.554;12.068;2023-03-04T22:06:28;8.20;72.00
53645;DHT22;39547;45.554;12.068;2023-03-04T22:12:30;8.10;72.10
53645;DHT22;39547;45.554;12.068;2023-03-04T22:18:32;8.00;72.20
53645;DHT22;39547;45.554;12.068;2023-03-04T22:24:33;7.90;72.50
53645;DHT22;39547;45.554;12.068;2023-03-04T22:30:35;7.90;72.80
53645;DHT22;39547;45.554;12.068;2023-03-04T22:36:39;7.80;72.80
53645;DHT22;39547;45.554;12.068;2023-03-04T22:42:42;7.80;73.00
53645;DHT22;39547;45.554;12.068;2023-03-04T22:48:43;7.70;73.20
53645;DHT22;39547;45.554;12.068;2023-03-04T22:54:45;7.70;73.30
53645;DHT22;39547;45.554;12.068;2023-03-04T23:00:46;7.60;73.50
53645;DHT22;39547;45.554;12.068;2023-03-04T23:06:48;7.60;73.60
53645;DHT22;39547;45.554;12.068;2023-03-04T23:12:50;7.50;73.70
53645;DHT22;39547;45.554;12.068;2023-03-04T23:18:52;7.50;73.80
53645;DHT22;39547;45.554;12.068;2023-03-04T23:24:54;7.40;74.00
53645;DHT22;39547;45.554;12.068;2023-03-04T23:30:57;7.40;74.20
53645;DHT22;39547;45.554;12.068;2023-03-04T23:36:59;7.30;74.30
53645;DHT22;39547;45.554;12.068;2023-03-04T23:43:00;7.20;74.40
53645;DHT22;39547;45.554;12.068;2023-03-04T23:49:02;7.20;74.50
53645;DHT22;39547;45.554;12.068;2023-03-04T23:55:04;7.20;74.70
